Terminal Aerodrome Forecast
Issued by NWS

Current Version | Previous Version | Text Only | Print | Product List | Glossary On
Versions: 1 2 3 4 5 6 7 8 9 10 11 12 13 14 15 16 17 18 19 20 21 22 23 24 25 26 27 28
371
FTUS43 KLOT 222324
TAFDPA
TAF
KDPA 222324Z 2300/2324 36008KT 6SM -RA BR FEW008 SCT013 BKN035
      TEMPO 2300/2304 3SM -RA BR BKN008
     FM231000 36008KT 5SM -DZ BR VCSH SCT009 BKN025
     FM231400 34007KT P6SM FEW025 BKN150=

USA.gov is the U.S. government's official web portal to all federal, state and local government web resources and services.